createdAt,value
2023-05-05T00:04:34.736Z,17.01
2023-05-05T00:07:01.528Z,16.95
2023-05-05T00:09:28.183Z,16.86
2023-05-05T00:11:54.825Z,16.86
2023-05-05T00:14:21.384Z,16.79
2023-05-05T00:16:48.062Z,16.70
2023-05-05T00:19:14.650Z,16.58
2023-05-05T00:21:41.359Z,16.56
2023-05-05T00:24:10.139Z,16.55
2023-05-05T00:26:54.089Z,16.49
2023-05-05T00:29:21.105Z,16.46
2023-05-05T00:31:47.705Z,16.46
2023-05-05T00:34:14.278Z,16.40
2023-05-05T00:36:41.411Z,16.35
2023-05-05T00:39:08.147Z,16.32
2023-05-05T00:41:34.626Z,16.32
2023-05-05T00:44:01.403Z,16.36
2023-05-05T00:46:30.890Z,16.35
2023-05-05T00:48:57.983Z,16.30
2023-05-05T00:51:25.350Z,16.25
2023-05-05T00:53:52.339Z,16.23
2023-05-05T00:56:21.012Z,16.19
2023-05-05T00:58:48.261Z,16.18
2023-05-05T01:01:15.661Z,16.19
2023-05-05T01:03:42.585Z,16.18
2023-05-05T01:06:24.471Z,16.22
2023-05-05T01:09:12.974Z,16.24
2023-05-05T01:11:45.852Z,16.22
2023-05-05T01:14:16.984Z,16.21
2023-05-05T01:16:59.929Z,16.16
2023-05-05T01:19:54.576Z,16.15
2023-05-05T01:22:27.148Z,16.15
2023-05-05T01:25:02.805Z,16.14
2023-05-05T01:27:55.738Z,16.16
2023-05-05T01:30:50.146Z,16.18
2023-05-05T01:33:23.345Z,16.18
2023-05-05T01:35:57.789Z,16.17
2023-05-05T01:38:32.504Z,16.18
2023-05-05T01:41:08.250Z,16.21
2023-05-05T01:43:37.041Z,16.24
2023-05-05T01:46:06.195Z,16.27
2023-05-05T01:48:33.569Z,16.28
2023-05-05T01:51:05.319Z,16.27
2023-05-05T01:53:33.371Z,16.27
2023-05-05T01:56:01.934Z,16.26
2023-05-05T01:58:30.034Z,16.28
2023-05-05T02:03:56.967Z,16.28
2023-05-05T02:06:24.870Z,16.28
2023-05-05T02:08:53.342Z,16.27
2023-05-05T02:11:21.791Z,16.28
2023-05-05T02:13:50.063Z,16.25
2023-05-05T02:16:18.715Z,16.19
2023-05-05T02:18:47.381Z,16.15
2023-05-05T02:21:17.816Z,16.15
2023-05-05T02:23:51.794Z,16.15
2023-05-05T02:26:21.824Z,16.17
2023-05-05T02:28:58.602Z,16.16
2023-05-05T02:31:28.065Z,16.14
2023-05-05T02:33:57.714Z,16.16
2023-05-05T02:36:29.715Z,16.15
2023-05-05T02:39:02.398Z,16.12
2023-05-05T02:41:31.517Z,16.09
2023-05-05T02:44:02.421Z,16.09
2023-05-05T02:46:29.340Z,16.08
2023-05-05T02:48:56.122Z,16.06
2023-05-05T02:51:22.734Z,16.04
2023-05-05T02:53:49.386Z,15.99
2023-05-05T02:56:43.092Z,15.94
2023-05-05T02:59:31.175Z,15.86
2023-05-05T03:02:15.823Z,15.78
2023-05-05T03:04:48.865Z,15.75
2023-05-05T03:07:33.426Z,15.73
2023-05-05T03:10:18.673Z,15.69
2023-05-05T03:12:58.458Z,15.64
2023-05-05T03:15:37.067Z,15.55
2023-05-05T03:18:06.458Z,15.50
2023-05-05T03:20:33.403Z,15.44
2023-05-05T03:23:02.269Z,15.39
2023-05-05T03:25:48.074Z,15.34
2023-05-05T03:28:15.302Z,15.29
2023-05-05T03:30:42.726Z,15.24
2023-05-05T03:33:11.659Z,15.23
2023-05-05T03:35:38.774Z,15.19
2023-05-05T03:38:06.014Z,15.14
2023-05-05T03:40:43.563Z,15.08
2023-05-05T03:43:11.554Z,15.02
2023-05-05T03:45:38.376Z,15.00
2023-05-05T03:48:05.364Z,14.96
2023-05-05T03:50:32.021Z,14.93
2023-05-05T03:52:58.519Z,14.89
2023-05-05T03:55:25.180Z,14.86
2023-05-05T03:57:51.817Z,14.85
2023-05-05T04:00:18.760Z,14.85
2023-05-05T04:02:45.365Z,14.84
2023-05-05T04:05:12.178Z,14.83
2023-05-05T04:07:38.936Z,14.81
2023-05-05T04:10:07.146Z,14.79
2023-05-05T04:12:33.897Z,14.78
2023-05-05T04:15:00.575Z,14.77
2023-05-05T04:17:27.116Z,14.75
2023-05-05T04:19:53.808Z,14.72
2023-05-05T04:22:20.804Z,14.70
2023-05-05T04:24:47.858Z,14.67
2023-05-05T04:27:14.358Z,14.64
2023-05-05T04:29:41.387Z,14.61
2023-05-05T04:32:08.284Z,14.58
2023-05-05T04:34:35.027Z,14.55
2023-05-05T04:37:01.950Z,14.55
2023-05-05T04:39:28.554Z,14.54
2023-05-05T04:41:55.096Z,14.55
2023-05-05T04:44:21.804Z,14.57
2023-05-05T04:46:48.342Z,14.55
2023-05-05T04:49:14.907Z,14.56
2023-05-05T04:51:42.976Z,14.57
2023-05-05T04:54:09.770Z,14.58
2023-05-05T04:56:37.183Z,14.55
2023-05-05T04:59:03.903Z,14.59
2023-05-05T05:01:30.612Z,14.60
2023-05-05T05:03:57.333Z,14.63
2023-05-05T05:06:24.264Z,14.71
2023-05-05T05:08:50.708Z,14.82
2023-05-05T05:11:17.244Z,14.90
2023-05-05T05:13:43.821Z,15.02
2023-05-05T05:16:10.416Z,15.12
2023-05-05T05:18:37.031Z,15.22
2023-05-05T05:21:03.784Z,15.34
2023-05-05T05:23:30.706Z,15.47
2023-05-05T05:25:57.626Z,15.58
2023-05-05T05:28:24.286Z,15.72
2023-05-05T05:30:52.109Z,15.84
2023-05-05T05:33:19.038Z,15.97
2023-05-05T05:35:46.070Z,16.15
2023-05-05T05:38:12.685Z,16.32
2023-05-05T05:40:39.184Z,16.52
2023-05-05T05:43:05.785Z,16.65
2023-05-05T05:45:32.271Z,16.83
2023-05-05T05:47:58.801Z,16.98
2023-05-05T05:50:28.554Z,17.04
2023-05-05T05:52:55.787Z,17.16
2023-05-05T05:55:22.383Z,17.35
2023-05-05T05:57:48.934Z,17.38
2023-05-05T06:00:16.008Z,17.49
2023-05-05T06:02:42.766Z,17.58
2023-05-05T06:05:10.516Z,17.63
2023-05-05T06:07:37.024Z,17.70
2023-05-05T06:10:18.619Z,17.73
2023-05-05T06:12:50.656Z,17.76
2023-05-05T06:15:17.226Z,17.82
2023-05-05T06:17:43.760Z,17.91
2023-05-05T06:20:10.985Z,17.97
2023-05-05T06:22:37.508Z,18.01
2023-05-05T06:25:04.525Z,18.08
2023-05-05T06:27:31.050Z,18.16
2023-05-05T06:29:57.741Z,18.22
2023-05-05T06:32:24.333Z,18.35
2023-05-05T06:34:51.248Z,18.46
2023-05-05T06:37:17.893Z,18.62
2023-05-05T06:39:44.502Z,18.79
2023-05-05T06:42:11.099Z,18.91
2023-05-05T06:44:37.785Z,19.00
2023-05-05T06:47:04.327Z,19.07
2023-05-05T06:49:31.307Z,19.16
2023-05-05T06:51:57.835Z,19.31
2023-05-05T06:54:24.399Z,19.29
2023-05-05T06:56:51.004Z,19.35
2023-05-05T06:59:17.487Z,19.41
2023-05-05T07:01:44.238Z,19.49
2023-05-05T07:04:11.234Z,19.59
2023-05-05T07:06:37.910Z,19.69
2023-05-05T07:09:04.752Z,19.67
2023-05-05T07:11:31.362Z,19.61
2023-05-05T07:13:57.909Z,19.56
2023-05-05T07:16:25.283Z,19.63
2023-05-05T07:18:51.813Z,19.61
2023-05-05T07:21:18.479Z,19.60
2023-05-05T07:23:47.743Z,19.59
2023-05-05T07:26:15.311Z,19.53
2023-05-05T07:28:43.222Z,19.36
2023-05-05T07:31:09.797Z,19.35
2023-05-05T07:33:36.772Z,19.35
2023-05-05T07:36:03.817Z,19.37
2023-05-05T07:38:30.428Z,19.38
2023-05-05T07:43:51.018Z,19.46
2023-05-05T07:46:34.526Z,19.54
2023-05-05T07:49:01.694Z,19.61
2023-05-05T07:51:28.166Z,19.69
2023-05-05T07:53:56.200Z,19.74
2023-05-05T07:56:23.307Z,19.80
2023-05-05T07:58:49.945Z,19.81
2023-05-05T08:01:16.785Z,19.78
2023-05-05T08:03:43.691Z,19.83
2023-05-05T08:06:12.036Z,19.94
2023-05-05T08:09:02.125Z,20.03
2023-05-05T08:11:38.935Z,20.06
2023-05-05T08:14:07.199Z,20.11
2023-05-05T08:16:59.827Z,20.18
2023-05-05T08:19:29.587Z,20.31
2023-05-05T08:22:01.087Z,20.47
2023-05-05T08:24:28.704Z,20.53
2023-05-05T08:26:56.752Z,20.67
2023-05-05T08:29:23.918Z,20.79
2023-05-05T08:31:52.005Z,20.81
2023-05-05T08:34:18.702Z,20.87
2023-05-05T08:36:45.384Z,20.89
2023-05-05T08:39:12.350Z,20.97
2023-05-05T08:41:39.019Z,20.99
2023-05-05T08:44:05.700Z,20.97
2023-05-05T08:46:33.149Z,20.95
2023-05-05T08:49:03.888Z,20.96
2023-05-05T08:51:42.725Z,21.01
2023-05-05T08:54:17.520Z,21.03
2023-05-05T08:56:47.169Z,21.10
2023-05-05T08:59:15.646Z,21.18
2023-05-05T09:01:42.893Z,21.23
2023-05-05T09:04:10.000Z,21.29
2023-05-05T09:06:38.249Z,21.24
2023-05-05T09:12:55.539Z,21.34
2023-05-05T09:15:25.314Z,21.42
2023-05-05T09:17:51.912Z,21.40
2023-05-05T09:20:21.804Z,21.47
2023-05-05T09:22:49.012Z,21.46
2023-05-05T09:25:24.395Z,21.44
2023-05-05T09:27:52.693Z,21.41
2023-05-05T09:30:28.209Z,21.43
2023-05-05T09:32:55.972Z,21.41
2023-05-05T09:35:25.721Z,21.38
2023-05-05T09:37:56.126Z,21.42
2023-05-05T09:40:52.031Z,21.52
2023-05-05T09:43:36.556Z,21.60
2023-05-05T09:46:08.938Z,21.58
2023-05-05T09:48:36.170Z,21.60
2023-05-05T09:51:02.816Z,21.59
2023-05-05T09:53:39.628Z,21.53
2023-05-05T09:56:07.227Z,21.48
2023-05-05T09:58:33.925Z,21.46
2023-05-05T10:01:01.252Z,21.51
2023-05-05T10:03:28.176Z,21.53
2023-05-05T10:05:59.928Z,21.53
2023-05-05T10:08:34.973Z,21.50
2023-05-05T10:11:11.098Z,21.53
2023-05-05T10:13:42.028Z,21.51
2023-05-05T10:16:11.772Z,21.16
2023-05-05T10:18:46.275Z,20.86
2023-05-05T10:21:23.401Z,20.16
2023-05-05T10:23:58.278Z,18.84
2023-05-05T10:26:27.800Z,17.10
2023-05-05T10:29:04.216Z,16.51
2023-05-05T10:31:41.897Z,16.27
2023-05-05T10:34:21.822Z,16.06
2023-05-05T10:36:49.673Z,15.73
2023-05-05T10:39:20.257Z,15.51
2023-05-05T10:41:47.405Z,15.48
2023-05-05T10:44:15.142Z,15.48
2023-05-05T10:46:43.270Z,15.48
2023-05-05T10:49:28.267Z,15.72
2023-05-05T10:52:21.245Z,15.82
2023-05-05T10:55:01.318Z,15.73
2023-05-05T10:57:31.236Z,15.53
2023-05-05T10:59:57.955Z,15.45
2023-05-05T11:02:27.279Z,15.44
2023-05-05T11:05:21.494Z,15.53
2023-05-05T11:07:50.243Z,15.47
2023-05-05T11:10:21.270Z,15.44
2023-05-05T11:13:02.957Z,15.40
2023-05-05T11:15:29.854Z,15.38
2023-05-05T11:17:57.345Z,15.47
2023-05-05T11:23:31.304Z,15.74
2023-05-05T11:25:59.686Z,15.78
2023-05-05T11:28:31.602Z,15.74
2023-05-05T11:31:01.608Z,15.72
2023-05-05T11:33:37.146Z,15.80
2023-05-05T11:36:19.362Z,15.89
2023-05-05T11:39:07.837Z,15.96
2023-05-05T11:41:57.010Z,16.02
2023-05-05T11:44:33.236Z,16.03
2023-05-05T11:47:02.536Z,16.03
2023-05-05T11:49:38.073Z,16.05
2023-05-05T11:52:07.411Z,16.04
2023-05-05T11:54:40.553Z,16.06
2023-05-05T11:57:09.066Z,16.11
2023-05-05T11:59:37.480Z,16.14
2023-05-05T12:02:04.797Z,16.17
2023-05-05T12:04:32.439Z,16.21
2023-05-05T12:06:59.686Z,16.21
2023-05-05T12:09:27.631Z,16.21
2023-05-05T12:11:58.833Z,16.22
2023-05-05T12:14:25.765Z,16.25
2023-05-05T12:17:02.969Z,16.26
2023-05-05T12:19:33.286Z,16.27
2023-05-05T12:22:01.601Z,16.22
2023-05-05T12:24:28.630Z,16.24
2023-05-05T12:26:55.311Z,16.21
2023-05-05T12:29:28.991Z,16.24
2023-05-05T12:31:58.177Z,16.23
2023-05-05T12:34:25.028Z,16.21
2023-05-05T12:36:52.208Z,16.21
2023-05-05T12:39:18.860Z,16.21
2023-05-05T12:41:45.531Z,16.24
2023-05-05T12:44:12.172Z,16.29
2023-05-05T12:46:49.253Z,16.30
2023-05-05T12:49:17.076Z,16.32
2023-05-05T12:51:54.454Z,16.35
2023-05-05T12:54:23.127Z,16.39
2023-05-05T12:56:51.513Z,16.45
2023-05-05T12:59:21.040Z,16.49
2023-05-05T13:01:53.807Z,16.53
2023-05-05T13:04:23.201Z,16.59
2023-05-05T13:07:07.603Z,16.62
2023-05-05T13:09:34.702Z,16.59
2023-05-05T13:14:59.049Z,16.72
2023-05-05T13:17:25.688Z,16.77
2023-05-05T13:19:52.410Z,16.69
2023-05-05T13:22:19.135Z,16.67
2023-05-05T13:24:51.565Z,16.66
2023-05-05T13:27:19.633Z,16.61
2023-05-05T13:29:48.695Z,16.60
2023-05-05T13:38:50.997Z,16.58
2023-05-05T13:41:17.547Z,16.58
2023-05-05T13:43:44.226Z,16.61
2023-05-05T13:48:43.322Z,16.62
2023-05-05T13:51:10.477Z,16.63
2023-05-05T13:53:37.136Z,16.67
2023-05-05T13:56:04.321Z,16.65
2023-05-05T13:58:31.076Z,16.64
2023-05-05T14:00:57.969Z,16.61
2023-05-05T14:03:24.664Z,16.62
2023-05-05T14:06:01.174Z,16.59
2023-05-05T14:08:28.640Z,16.58
2023-05-05T14:10:55.217Z,16.49
2023-05-05T14:13:21.777Z,16.42
2023-05-05T14:15:50.393Z,16.41
2023-05-05T14:18:17.278Z,16.40
2023-05-05T14:20:43.832Z,16.40
2023-05-05T14:23:10.448Z,16.45
2023-05-05T14:25:37.142Z,16.46
2023-05-05T14:28:03.991Z,16.50
2023-05-05T14:30:30.822Z,16.51
2023-05-05T14:32:57.454Z,16.57
2023-05-05T14:35:24.599Z,16.60
2023-05-05T14:37:51.560Z,16.66
2023-05-05T14:40:18.126Z,16.66
2023-05-05T14:42:44.858Z,16.63
2023-05-05T14:45:11.740Z,16.65
2023-05-05T14:47:38.574Z,16.61
2023-05-05T14:50:08.796Z,16.62
2023-05-05T14:52:37.401Z,16.65
2023-05-05T14:55:04.465Z,16.72
2023-05-05T14:57:31.168Z,16.78
2023-05-05T14:59:57.898Z,16.80
2023-05-05T15:02:24.757Z,16.81
2023-05-05T15:04:53.041Z,16.85
2023-05-05T15:07:20.822Z,16.95
2023-05-05T15:09:47.587Z,17.05
2023-05-05T15:12:14.189Z,17.10
2023-05-05T15:14:40.896Z,17.04
2023-05-05T15:17:07.515Z,17.13
2023-05-05T15:19:33.992Z,17.16
2023-05-05T15:22:00.691Z,17.13
2023-05-05T15:24:27.304Z,17.22
2023-05-05T15:26:53.856Z,17.28
2023-05-05T15:29:20.832Z,17.32
2023-05-05T15:31:47.704Z,17.39
2023-05-05T15:34:14.507Z,17.39
2023-05-05T15:36:41.226Z,17.43
2023-05-05T15:39:08.094Z,17.52
2023-05-05T15:41:35.038Z,17.63
2023-05-05T15:44:03.357Z,17.72
2023-05-05T15:46:33.565Z,17.78
2023-05-05T15:49:00.568Z,17.84
2023-05-05T15:51:27.470Z,17.83
2023-05-05T15:53:54.102Z,17.80
2023-05-05T15:56:20.957Z,17.79
2023-05-05T15:58:47.553Z,17.86
2023-05-05T16:01:14.148Z,17.88
2023-05-05T16:03:41.216Z,17.82
2023-05-05T16:06:08.015Z,17.82
2023-05-05T16:08:35.090Z,17.82
2023-05-05T16:11:01.824Z,17.83
2023-05-05T16:13:28.850Z,17.79
2023-05-05T16:15:55.865Z,17.83
2023-05-05T16:18:22.473Z,17.90
2023-05-05T16:20:49.217Z,17.96
2023-05-05T16:23:15.887Z,18.07
2023-05-05T16:25:42.640Z,18.04
2023-05-05T16:28:09.401Z,18.14
2023-05-05T16:30:36.161Z,18.11
2023-05-05T16:33:03.233Z,18.12
2023-05-05T16:35:29.911Z,18.14
2023-05-05T16:37:56.588Z,18.18
2023-05-05T16:40:23.432Z,18.18
2023-05-05T16:42:50.028Z,18.21
2023-05-05T16:45:16.747Z,18.23
2023-05-05T16:47:43.311Z,18.18
2023-05-05T16:50:10.508Z,18.13
2023-05-05T16:52:37.074Z,18.10
2023-05-05T16:55:05.034Z,18.11
2023-05-05T16:57:31.976Z,18.07
2023-05-05T16:59:58.503Z,18.07
2023-05-05T17:02:30.189Z,18.09
2023-05-05T17:04:56.847Z,18.10
2023-05-05T17:07:23.594Z,18.08
2023-05-05T17:09:50.200Z,18.10
2023-05-05T17:12:16.808Z,18.05
2023-05-05T17:14:44.621Z,18.06
2023-05-05T17:17:11.409Z,18.05
2023-05-05T17:19:38.003Z,17.99
2023-05-05T17:22:04.530Z,17.98
2023-05-05T17:24:31.496Z,18.02
2023-05-05T17:26:58.402Z,17.97
2023-05-05T17:29:25.005Z,17.91
2023-05-05T17:31:51.778Z,17.82
2023-05-05T17:34:18.519Z,17.76
2023-05-05T17:36:45.247Z,17.77
2023-05-05T17:39:11.915Z,17.76
2023-05-05T17:41:38.562Z,17.79
2023-05-05T17:44:05.260Z,17.75
2023-05-05T17:46:31.854Z,17.78
2023-05-05T17:48:58.649Z,17.77
2023-05-05T17:51:26.291Z,17.77
2023-05-05T17:53:53.175Z,17.80
2023-05-05T17:56:19.850Z,17.80
2023-05-05T17:58:46.685Z,17.80
2023-05-05T18:01:26.561Z,17.82
2023-05-05T18:03:53.507Z,17.84
2023-05-05T18:06:20.447Z,17.81
2023-05-05T18:08:47.065Z,17.81
2023-05-05T18:11:13.640Z,17.78
2023-05-05T18:13:40.301Z,17.78
2023-05-05T18:16:06.991Z,17.73
2023-05-05T18:18:33.776Z,17.69
2023-05-05T18:21:00.834Z,17.67
2023-05-05T18:23:27.469Z,17.69
2023-05-05T18:25:54.171Z,17.63
2023-05-05T18:28:20.790Z,17.64
2023-05-05T18:30:47.453Z,17.65
2023-05-05T18:33:14.080Z,17.65
2023-05-05T18:35:40.970Z,17.61
2023-05-05T18:38:07.545Z,17.55
2023-05-05T18:40:34.291Z,17.53
2023-05-05T18:43:01.996Z,17.51
2023-05-05T18:45:28.764Z,17.50
2023-05-05T18:47:56.517Z,17.49
2023-05-05T18:50:23.337Z,17.47
2023-05-05T18:52:49.867Z,17.46
2023-05-05T18:55:16.610Z,17.42
2023-05-05T18:57:43.257Z,17.41
2023-05-05T19:00:10.807Z,17.36
2023-05-05T19:02:37.489Z,17.32
2023-05-05T19:05:04.573Z,17.29
2023-05-05T19:07:35.004Z,17.25
2023-05-05T19:10:04.306Z,17.22
2023-05-05T19:12:30.974Z,17.22
2023-05-05T19:14:58.254Z,17.16
2023-05-05T19:17:25.224Z,17.11
2023-05-05T19:19:51.977Z,17.07
2023-05-05T19:22:18.689Z,17.01
2023-05-05T19:24:45.196Z,16.99
2023-05-05T19:27:15.493Z,16.95
2023-05-05T19:29:43.542Z,16.92
2023-05-05T19:32:10.224Z,16.84
2023-05-05T19:34:37.004Z,16.78
2023-05-05T19:37:03.696Z,16.72
2023-05-05T19:39:30.253Z,16.67
2023-05-05T19:41:57.036Z,16.63
2023-05-05T19:44:23.908Z,16.62
2023-05-05T19:46:52.733Z,16.56
2023-05-05T19:49:19.389Z,16.51
2023-05-05T19:51:47.598Z,16.50
2023-05-05T19:54:14.371Z,16.45
2023-05-05T19:56:40.965Z,16.41
2023-05-05T19:59:07.615Z,16.38
2023-05-05T20:01:35.432Z,16.37
2023-05-05T20:04:03.705Z,16.32
2023-05-05T20:06:30.399Z,16.23
2023-05-05T20:08:56.929Z,16.16
2023-05-05T20:11:24.927Z,16.07
2023-05-05T20:13:52.635Z,15.96
2023-05-05T20:16:19.449Z,15.86
2023-05-05T20:18:45.941Z,15.77
2023-05-05T20:21:12.717Z,15.68
2023-05-05T20:23:39.565Z,15.56
2023-05-05T20:26:06.504Z,15.46
2023-05-05T20:28:33.342Z,15.37
2023-05-05T20:31:01.019Z,15.27
2023-05-05T20:33:30.819Z,15.19
2023-05-05T20:35:57.508Z,15.09
2023-05-05T20:38:24.444Z,15.01
2023-05-05T20:40:52.163Z,14.94
2023-05-05T20:43:19.365Z,14.89
2023-05-05T20:45:46.050Z,14.83
2023-05-05T20:48:12.916Z,14.77
2023-05-05T20:50:41.686Z,14.72
2023-05-05T20:53:09.594Z,14.67
2023-05-05T20:55:36.455Z,14.62
2023-05-05T20:58:05.432Z,14.54
2023-05-05T21:00:32.418Z,14.47
2023-05-05T21:02:59.692Z,14.41
2023-05-05T21:05:26.713Z,14.36
2023-05-05T21:07:53.647Z,14.30
2023-05-05T21:10:20.542Z,14.26
2023-05-05T21:12:47.323Z,14.20
2023-05-05T21:15:13.936Z,14.15
2023-05-05T21:17:40.705Z,14.09
2023-05-05T21:20:08.193Z,14.06
2023-05-05T21:22:35.301Z,14.02
2023-05-05T21:25:11.426Z,14.00
2023-05-05T21:27:38.030Z,13.95
2023-05-05T21:30:05.579Z,13.91
2023-05-05T21:32:32.385Z,13.86
2023-05-05T21:34:59.004Z,13.84
2023-05-05T21:37:25.990Z,13.79
2023-05-05T21:39:52.491Z,13.74
2023-05-05T21:42:19.282Z,13.71
2023-05-05T21:44:45.859Z,13.66
2023-05-05T21:47:12.374Z,13.64
2023-05-05T21:49:39.034Z,13.62
2023-05-05T21:52:05.785Z,13.56
2023-05-05T21:54:32.305Z,13.52
2023-05-05T21:56:59.065Z,13.49
2023-05-05T21:59:25.712Z,13.45
2023-05-05T22:01:52.259Z,13.44
2023-05-05T22:04:18.970Z,13.41
2023-05-05T22:06:45.602Z,13.38
2023-05-05T22:09:12.221Z,13.34
2023-05-05T22:11:38.767Z,13.34
2023-05-05T22:14:05.361Z,13.28
2023-05-05T22:16:31.872Z,13.23
2023-05-05T22:18:58.413Z,13.19
2023-05-05T22:21:25.407Z,13.19
2023-05-05T22:23:51.998Z,13.15
2023-05-05T22:26:18.808Z,13.13
2023-05-05T22:28:45.485Z,13.09
2023-05-05T22:31:12.010Z,13.08
2023-05-05T22:33:39.659Z,13.03
2023-05-05T22:36:07.010Z,13.00
2023-05-05T22:38:33.645Z,13.00
2023-05-05T22:43:54.575Z,12.99
2023-05-05T22:46:21.268Z,12.98
2023-05-05T22:48:47.818Z,12.98
2023-05-05T22:54:08.598Z,12.99
2023-05-05T22:56:35.818Z,12.98
2023-05-05T22:59:02.337Z,12.96
2023-05-05T23:01:29.004Z,12.96
2023-05-05T23:03:55.702Z,12.96
2023-05-05T23:06:22.251Z,12.98
2023-05-05T23:08:49.293Z,13.00
2023-05-05T23:11:16.215Z,13.00
2023-05-05T23:13:42.807Z,13.01
2023-05-05T23:16:09.442Z,13.00
2023-05-05T23:18:36.787Z,13.00
2023-05-05T23:21:03.373Z,13.00
2023-05-05T23:23:30.740Z,13.00
2023-05-05T23:25:57.299Z,12.98
2023-05-05T23:28:24.245Z,12.99
2023-05-05T23:30:51.050Z,12.94
2023-05-05T23:33:17.934Z,12.93
2023-05-05T23:35:45.593Z,12.90
2023-05-05T23:38:12.110Z,12.89
2023-05-05T23:40:38.716Z,12.86
2023-05-05T23:43:05.306Z,12.85
2023-05-05T23:45:31.958Z,12.83
2023-05-05T23:47:58.578Z,12.84
2023-05-05T23:50:25.861Z,12.82
2023-05-05T23:52:52.342Z,12.82
2023-05-05T23:55:18.970Z,12.82
2023-05-05T23:57:45.497Z,12.84
